sensor_id;sensor_type;location;lat;lon;timestamp;temperature;humidity
4425;DHT22;2225;53.568;13.266;2024-03-02T00:00:08;9.80;99.20
4425;DHT22;2225;53.568;13.266;2024-03-02T00:02:46;9.80;99.20
4425;DHT22;2225;53.568;13.266;2024-03-02T00:05:20;9.80;99.10
4425;DHT22;2225;53.568;13.266;2024-03-02T00:07:55;9.80;99.10
4425;DHT22;2225;53.568;13.266;2024-03-02T00:10:25;9.80;99.10
4425;DHT22;2225;53.568;13.266;2024-03-02T00:12:58;9.80;99.10
4425;DHT22;2225;53.568;13.266;2024-03-02T00:15:40;9.80;99.10
4425;DHT22;2225;53.568;13.266;2024-03-02T00:18:11;9.90;99.20
4425;DHT22;2225;53.568;13.266;2024-03-02T00:20:40;9.90;99.20
4425;DHT22;2225;53.568;13.266;2024-03-02T00:23:08;9.80;99.20
4425;DHT22;2225;53.568;13.266;2024-03-02T00:25:46;9.90;99.20
4425;DHT22;2225;53.568;13.266;2024-03-02T00:28:19;9.90;99.30
4425;DHT22;2225;53.568;13.266;2024-03-02T00:33:47;10.00;99.40
4425;DHT22;2225;53.568;13.266;2024-03-02T00:36:16;10.00;99.40
4425;DHT22;2225;53.568;13.266;2024-03-02T00:38:52;10.00;99.30
4425;DHT22;2225;53.568;13.266;2024-03-02T00:41:31;10.00;99.30
4425;DHT22;2225;53.568;13.266;2024-03-02T00:44:00;10.10;99.20
4425;DHT22;2225;53.568;13.266;2024-03-02T00:46:39;10.10;99.20
4425;DHT22;2225;53.568;13.266;2024-03-02T00:49:23;10.10;99.20
4425;DHT22;2225;53.568;13.266;2024-03-02T00:51:53;10.10;99.20
4425;DHT22;2225;53.568;13.266;2024-03-02T00:54:22;10.10;99.10
4425;DHT22;2225;53.568;13.266;2024-03-02T00:56:54;10.10;99.00
4425;DHT22;2225;53.568;13.266;2024-03-02T00:59:23;10.10;99.00
4425;DHT22;2225;53.568;13.266;2024-03-02T01:01:50;10.10;99.00
4425;DHT22;2225;53.568;13.266;2024-03-02T01:04:18;10.10;99.10
4425;DHT22;2225;53.568;13.266;2024-03-02T01:06:45;10.10;99.10
4425;DHT22;2225;53.568;13.266;2024-03-02T01:09:12;10.10;99.10
4425;DHT22;2225;53.568;13.266;2024-03-02T01:11:39;10.20;99.20
4425;DHT22;2225;53.568;13.266;2024-03-02T01:14:06;10.20;99.20
4425;DHT22;2225;53.568;13.266;2024-03-02T01:16:33;10.20;99.20
4425;DHT22;2225;53.568;13.266;2024-03-02T01:19:00;10.20;99.20
4425;DHT22;2225;53.568;13.266;2024-03-02T01:21:27;10.20;99.20
4425;DHT22;2225;53.568;13.266;2024-03-02T01:23:54;10.20;99.20
4425;DHT22;2225;53.568;13.266;2024-03-02T01:26:21;10.30;99.10
4425;DHT22;2225;53.568;13.266;2024-03-02T01:28:48;10.30;99.00
4425;DHT22;2225;53.568;13.266;2024-03-02T01:31:15;10.30;99.30
4425;DHT22;2225;53.568;13.266;2024-03-02T01:33:42;10.30;99.00
4425;DHT22;2225;53.568;13.266;2024-03-02T01:36:09;10.30;99.00
4425;DHT22;2225;53.568;13.266;2024-03-02T01:38:36;10.30;99.00
4425;DHT22;2225;53.568;13.266;2024-03-02T01:41:03;10.30;99.00
4425;DHT22;2225;53.568;13.266;2024-03-02T01:43:30;10.30;99.00
4425;DHT22;2225;53.568;13.266;2024-03-02T01:45:57;10.30;98.80
4425;DHT22;2225;53.568;13.266;2024-03-02T01:48:25;10.30;98.70
4425;DHT22;2225;53.568;13.266;2024-03-02T01:50:52;10.30;98.60
4425;DHT22;2225;53.568;13.266;2024-03-02T01:53:19;10.30;98.50
4425;DHT22;2225;53.568;13.266;2024-03-02T01:55:46;10.30;98.30
4425;DHT22;2225;53.568;13.266;2024-03-02T01:58:13;10.30;98.20
4425;DHT22;2225;53.568;13.266;2024-03-02T02:00:40;10.30;98.20
4425;DHT22;2225;53.568;13.266;2024-03-02T02:03:07;10.30;98.10
4425;DHT22;2225;53.568;13.266;2024-03-02T02:05:34;10.30;98.00
4425;DHT22;2225;53.568;13.266;2024-03-02T02:08:02;10.30;98.00
4425;DHT22;2225;53.568;13.266;2024-03-02T02:10:29;10.30;98.10
4425;DHT22;2225;53.568;13.266;2024-03-02T02:12:56;10.20;98.10
4425;DHT22;2225;53.568;13.266;2024-03-02T02:15:27;10.20;98.30
4425;DHT22;2225;53.568;13.266;2024-03-02T02:17:56;10.20;98.40
4425;DHT22;2225;53.568;13.266;2024-03-02T02:20:24;10.20;98.40
4425;DHT22;2225;53.568;13.266;2024-03-02T02:25:26;10.30;98.50
4425;DHT22;2225;53.568;13.266;2024-03-02T02:27:54;10.30;98.50
4425;DHT22;2225;53.568;13.266;2024-03-02T02:30:26;10.30;98.60
4425;DHT22;2225;53.568;13.266;2024-03-02T02:32:55;10.30;98.80
4425;DHT22;2225;53.568;13.266;2024-03-02T02:35:22;10.30;98.90
4425;DHT22;2225;53.568;13.266;2024-03-02T02:37:52;10.30;98.90
4425;DHT22;2225;53.568;13.266;2024-03-02T02:40:20;10.30;99.00
4425;DHT22;2225;53.568;13.266;2024-03-02T02:42:48;10.30;99.10
4425;DHT22;2225;53.568;13.266;2024-03-02T02:45:15;10.40;99.10
4425;DHT22;2225;53.568;13.266;2024-03-02T02:47:43;10.40;99.10
4425;DHT22;2225;53.568;13.266;2024-03-02T02:50:11;10.40;99.50
4425;DHT22;2225;53.568;13.266;2024-03-02T02:52:40;10.40;99.10
4425;DHT22;2225;53.568;13.266;2024-03-02T02:55:10;10.50;99.20
4425;DHT22;2225;53.568;13.266;2024-03-02T02:57:42;10.50;99.20
4425;DHT22;2225;53.568;13.266;2024-03-02T03:00:15;10.50;99.30
4425;DHT22;2225;53.568;13.266;2024-03-02T03:02:49;10.50;99.30
4425;DHT22;2225;53.568;13.266;2024-03-02T03:05:18;10.60;99.30
4425;DHT22;2225;53.568;13.266;2024-03-02T03:07:45;10.60;99.30
4425;DHT22;2225;53.568;13.266;2024-03-02T03:10:14;10.60;99.30
4425;DHT22;2225;53.568;13.266;2024-03-02T03:12:42;10.60;99.30
4425;DHT22;2225;53.568;13.266;2024-03-02T03:15:10;10.60;99.30
4425;DHT22;2225;53.568;13.266;2024-03-02T03:17:38;10.70;99.30
4425;DHT22;2225;53.568;13.266;2024-03-02T03:20:06;10.70;99.30
4425;DHT22;2225;53.568;13.266;2024-03-02T03:22:37;10.70;99.30
4425;DHT22;2225;53.568;13.266;2024-03-02T03:25:05;10.70;99.30
4425;DHT22;2225;53.568;13.266;2024-03-02T03:27:33;10.80;99.30
4425;DHT22;2225;53.568;13.266;2024-03-02T03:30:00;10.80;99.30
4425;DHT22;2225;53.568;13.266;2024-03-02T03:32:27;10.80;99.30
4425;DHT22;2225;53.568;13.266;2024-03-02T03:34:54;10.80;99.40
4425;DHT22;2225;53.568;13.266;2024-03-02T03:37:21;10.90;99.30
4425;DHT22;2225;53.568;13.266;2024-03-02T03:39:48;10.90;99.40
4425;DHT22;2225;53.568;13.266;2024-03-02T03:42:15;10.90;99.30
4425;DHT22;2225;53.568;13.266;2024-03-02T03:44:42;10.90;99.30
4425;DHT22;2225;53.568;13.266;2024-03-02T03:47:09;10.90;99.30
4425;DHT22;2225;53.568;13.266;2024-03-02T03:49:36;10.90;99.20
4425;DHT22;2225;53.568;13.266;2024-03-02T03:52:03;10.90;99.20
4425;DHT22;2225;53.568;13.266;2024-03-02T03:54:30;10.90;99.20
4425;DHT22;2225;53.568;13.266;2024-03-02T03:56:57;10.90;99.10
4425;DHT22;2225;53.568;13.266;2024-03-02T03:59:24;10.90;99.10
4425;DHT22;2225;53.568;13.266;2024-03-02T04:01:51;10.90;99.20
4425;DHT22;2225;53.568;13.266;2024-03-02T04:04:19;10.90;99.20
4425;DHT22;2225;53.568;13.266;2024-03-02T04:06:46;10.90;99.30
4425;DHT22;2225;53.568;13.266;2024-03-02T04:09:13;10.90;99.30
4425;DHT22;2225;53.568;13.266;2024-03-02T04:11:40;10.90;99.40
4425;DHT22;2225;53.568;13.266;2024-03-02T04:14:07;10.90;99.40
4425;DHT22;2225;53.568;13.266;2024-03-02T04:16:34;11.00;99.50
4425;DHT22;2225;53.568;13.266;2024-03-02T04:19:01;11.00;99.50
4425;DHT22;2225;53.568;13.266;2024-03-02T04:21:28;11.00;99.60
4425;DHT22;2225;53.568;13.266;2024-03-02T04:23:55;11.00;99.60
4425;DHT22;2225;53.568;13.266;2024-03-02T04:26:26;11.00;99.70
4425;DHT22;2225;53.568;13.266;2024-03-02T04:28:53;11.10;99.70
4425;DHT22;2225;53.568;13.266;2024-03-02T04:31:20;11.10;99.70
4425;DHT22;2225;53.568;13.266;2024-03-02T04:33:47;11.10;99.70
4425;DHT22;2225;53.568;13.266;2024-03-02T04:36:14;11.10;99.70
4425;DHT22;2225;53.568;13.266;2024-03-02T04:38:41;11.20;99.80
4425;DHT22;2225;53.568;13.266;2024-03-02T04:41:08;11.20;99.70
4425;DHT22;2225;53.568;13.266;2024-03-02T04:43:35;11.20;99.70
4425;DHT22;2225;53.568;13.266;2024-03-02T04:46:02;11.20;99.70
4425;DHT22;2225;53.568;13.266;2024-03-02T04:48:29;11.20;99.70
4425;DHT22;2225;53.568;13.266;2024-03-02T04:50:56;11.30;99.70
4425;DHT22;2225;53.568;13.266;2024-03-02T04:53:23;11.30;99.60
4425;DHT22;2225;53.568;13.266;2024-03-02T04:55:50;11.30;99.60
4425;DHT22;2225;53.568;13.266;2024-03-02T04:58:35;11.30;99.50
4425;DHT22;2225;53.568;13.266;2024-03-02T05:01:02;11.40;99.40
4425;DHT22;2225;53.568;13.266;2024-03-02T05:03:29;11.40;99.30
4425;DHT22;2225;53.568;13.266;2024-03-02T05:05:56;11.30;99.10
4425;DHT22;2225;53.568;13.266;2024-03-02T05:08:23;11.40;99.00
4425;DHT22;2225;53.568;13.266;2024-03-02T05:10:50;11.40;98.90
4425;DHT22;2225;53.568;13.266;2024-03-02T05:13:17;11.30;98.80
4425;DHT22;2225;53.568;13.266;2024-03-02T05:15:44;11.30;98.90
4425;DHT22;2225;53.568;13.266;2024-03-02T05:18:12;11.30;99.00
4425;DHT22;2225;53.568;13.266;2024-03-02T05:20:39;11.30;99.00
4425;DHT22;2225;53.568;13.266;2024-03-02T05:23:06;11.30;99.10
4425;DHT22;2225;53.568;13.266;2024-03-02T05:25:33;11.20;99.20
4425;DHT22;2225;53.568;13.266;2024-03-02T05:28:01;11.20;99.40
4425;DHT22;2225;53.568;13.266;2024-03-02T05:30:28;11.30;99.50
4425;DHT22;2225;53.568;13.266;2024-03-02T05:32:55;11.30;99.50
4425;DHT22;2225;53.568;13.266;2024-03-02T05:35:22;11.30;99.40
4425;DHT22;2225;53.568;13.266;2024-03-02T05:37:49;11.30;99.60
4425;DHT22;2225;53.568;13.266;2024-03-02T05:40:16;11.30;99.60
4425;DHT22;2225;53.568;13.266;2024-03-02T05:42:44;11.30;99.60
4425;DHT22;2225;53.568;13.266;2024-03-02T05:45:12;11.30;99.60
4425;DHT22;2225;53.568;13.266;2024-03-02T05:47:38;11.40;99.70
4425;DHT22;2225;53.568;13.266;2024-03-02T05:50:06;11.40;99.70
4425;DHT22;2225;53.568;13.266;2024-03-02T05:52:33;11.40;99.70
4425;DHT22;2225;53.568;13.266;2024-03-02T05:55:00;11.40;99.80
4425;DHT22;2225;53.568;13.266;2024-03-02T05:57:27;11.40;99.70
4425;DHT22;2225;53.568;13.266;2024-03-02T06:00:23;11.40;99.80
4425;DHT22;2225;53.568;13.266;2024-03-02T06:02:50;11.40;99.70
4425;DHT22;2225;53.568;13.266;2024-03-02T06:05:18;11.50;99.70
4425;DHT22;2225;53.568;13.266;2024-03-02T06:07:45;11.50;99.70
4425;DHT22;2225;53.568;13.266;2024-03-02T06:10:12;11.50;99.70
4425;DHT22;2225;53.568;13.266;2024-03-02T06:12:40;11.50;99.80
4425;DHT22;2225;53.568;13.266;2024-03-02T06:15:07;11.50;99.80
4425;DHT22;2225;53.568;13.266;2024-03-02T06:17:35;11.50;99.80
4425;DHT22;2225;53.568;13.266;2024-03-02T06:20:02;11.50;99.90
4425;DHT22;2225;53.568;13.266;2024-03-02T06:22:29;11.50;99.90
4425;DHT22;2225;53.568;13.266;2024-03-02T06:24:56;11.60;99.90
4425;DHT22;2225;53.568;13.266;2024-03-02T06:27:24;11.60;99.90
4425;DHT22;2225;53.568;13.266;2024-03-02T06:29:51;11.60;99.90
4425;DHT22;2225;53.568;13.266;2024-03-02T06:32:18;11.70;99.90
4425;DHT22;2225;53.568;13.266;2024-03-02T06:34:45;11.70;99.90
4425;DHT22;2225;53.568;13.266;2024-03-02T06:37:11;11.70;99.90
4425;DHT22;2225;53.568;13.266;2024-03-02T06:39:39;11.80;99.90
4425;DHT22;2225;53.568;13.266;2024-03-02T06:42:06;11.80;99.90
4425;DHT22;2225;53.568;13.266;2024-03-02T06:44:34;11.80;99.90
4425;DHT22;2225;53.568;13.266;2024-03-02T06:47:01;11.80;99.90
4425;DHT22;2225;53.568;13.266;2024-03-02T06:49:28;11.90;99.90
4425;DHT22;2225;53.568;13.266;2024-03-02T06:51:55;11.90;99.90
4425;DHT22;2225;53.568;13.266;2024-03-02T06:54:22;11.90;99.90
4425;DHT22;2225;53.568;13.266;2024-03-02T06:56:50;12.00;99.90
4425;DHT22;2225;53.568;13.266;2024-03-02T06:59:17;12.00;99.90
4425;DHT22;2225;53.568;13.266;2024-03-02T07:01:44;12.10;99.90
4425;DHT22;2225;53.568;13.266;2024-03-02T07:04:11;12.10;99.90
4425;DHT22;2225;53.568;13.266;2024-03-02T07:06:38;12.10;99.90
4425;DHT22;2225;53.568;13.266;2024-03-02T07:09:05;12.10;99.90
4425;DHT22;2225;53.568;13.266;2024-03-02T07:11:33;12.20;99.90
4425;DHT22;2225;53.568;13.266;2024-03-02T07:14:01;12.20;99.90
4425;DHT22;2225;53.568;13.266;2024-03-02T07:16:28;12.20;99.90
4425;DHT22;2225;53.568;13.266;2024-03-02T07:18:56;12.30;99.90
4425;DHT22;2225;53.568;13.266;2024-03-02T07:21:23;12.30;99.90
4425;DHT22;2225;53.568;13.266;2024-03-02T07:23:51;12.30;99.90
4425;DHT22;2225;53.568;13.266;2024-03-02T07:26:18;12.30;99.90
4425;DHT22;2225;53.568;13.266;2024-03-02T07:28:48;12.40;99.90
4425;DHT22;2225;53.568;13.266;2024-03-02T07:31:15;12.40;99.90
4425;DHT22;2225;53.568;13.266;2024-03-02T07:33:45;12.40;99.90
4425;DHT22;2225;53.568;13.266;2024-03-02T07:36:15;12.50;99.90
4425;DHT22;2225;53.568;13.266;2024-03-02T07:38:43;12.50;99.90
4425;DHT22;2225;53.568;13.266;2024-03-02T07:41:11;12.60;99.90
4425;DHT22;2225;53.568;13.266;2024-03-02T07:43:38;12.60;99.90
4425;DHT22;2225;53.568;13.266;2024-03-02T07:46:05;12.70;99.90
4425;DHT22;2225;53.568;13.266;2024-03-02T07:48:32;12.70;99.90
4425;DHT22;2225;53.568;13.266;2024-03-02T07:50:59;12.70;99.90
4425;DHT22;2225;53.568;13.266;2024-03-02T07:53:28;12.80;99.90
4425;DHT22;2225;53.568;13.266;2024-03-02T07:55:56;12.80;99.90
4425;DHT22;2225;53.568;13.266;2024-03-02T07:58:29;12.90;99.90
4425;DHT22;2225;53.568;13.266;2024-03-02T08:00:56;12.90;99.90
4425;DHT22;2225;53.568;13.266;2024-03-02T08:03:23;13.00;99.90
4425;DHT22;2225;53.568;13.266;2024-03-02T08:05:50;13.00;99.90
4425;DHT22;2225;53.568;13.266;2024-03-02T08:08:17;13.10;99.90
4425;DHT22;2225;53.568;13.266;2024-03-02T08:10:44;13.10;99.90
4425;DHT22;2225;53.568;13.266;2024-03-02T08:13:11;13.20;99.90
4425;DHT22;2225;53.568;13.266;2024-03-02T08:15:38;13.20;99.90
4425;DHT22;2225;53.568;13.266;2024-03-02T08:18:05;13.30;99.90
4425;DHT22;2225;53.568;13.266;2024-03-02T08:20:32;13.30;99.90
4425;DHT22;2225;53.568;13.266;2024-03-02T08:22:59;13.40;99.90
4425;DHT22;2225;53.568;13.266;2024-03-02T08:25:26;13.40;99.90
4425;DHT22;2225;53.568;13.266;2024-03-02T08:27:53;13.50;99.90
4425;DHT22;2225;53.568;13.266;2024-03-02T08:30:21;13.50;99.90
4425;DHT22;2225;53.568;13.266;2024-03-02T08:32:48;13.60;99.90
4425;DHT22;2225;53.568;13.266;2024-03-02T08:35:15;13.60;99.90
4425;DHT22;2225;53.568;13.266;2024-03-02T08:37:42;13.60;99.90
4425;DHT22;2225;53.568;13.266;2024-03-02T08:40:10;13.70;99.90
4425;DHT22;2225;53.568;13.266;2024-03-02T08:42:42;13.70;99.90
4425;DHT22;2225;53.568;13.266;2024-03-02T08:45:09;13.70;99.90
4425;DHT22;2225;53.568;13.266;2024-03-02T08:47:36;13.70;99.90
4425;DHT22;2225;53.568;13.266;2024-03-02T08:50:03;13.70;99.90
4425;DHT22;2225;53.568;13.266;2024-03-02T08:52:31;13.80;99.90
4425;DHT22;2225;53.568;13.266;2024-03-02T08:54:58;13.80;99.90
4425;DHT22;2225;53.568;13.266;2024-03-02T08:57:25;13.80;99.90
4425;DHT22;2225;53.568;13.266;2024-03-02T08:59:52;13.80;99.90
4425;DHT22;2225;53.568;13.266;2024-03-02T09:02:19;13.80;99.90
4425;DHT22;2225;53.568;13.266;2024-03-02T09:04:46;13.80;99.90
4425;DHT22;2225;53.568;13.266;2024-03-02T09:07:13;13.80;99.90
4425;DHT22;2225;53.568;13.266;2024-03-02T09:09:40;13.80;99.90
4425;DHT22;2225;53.568;13.266;2024-03-02T09:12:07;13.80;99.90
4425;DHT22;2225;53.568;13.266;2024-03-02T09:14:35;13.80;99.90
4425;DHT22;2225;53.568;13.266;2024-03-02T09:17:03;13.90;99.90
4425;DHT22;2225;53.568;13.266;2024-03-02T09:19:30;13.90;99.90
4425;DHT22;2225;53.568;13.266;2024-03-02T09:21:57;13.90;99.90
4425;DHT22;2225;53.568;13.266;2024-03-02T09:24:25;13.90;99.90
4425;DHT22;2225;53.568;13.266;2024-03-02T09:26:52;13.90;99.90
4425;DHT22;2225;53.568;13.266;2024-03-02T09:29:19;13.90;99.90
4425;DHT22;2225;53.568;13.266;2024-03-02T09:31:47;14.00;99.90
4425;DHT22;2225;53.568;13.266;2024-03-02T09:34:14;14.00;99.90
4425;DHT22;2225;53.568;13.266;2024-03-02T09:36:42;14.00;99.90
4425;DHT22;2225;53.568;13.266;2024-03-02T09:39:10;14.10;99.90
4425;DHT22;2225;53.568;13.266;2024-03-02T09:41:37;14.10;99.90
4425;DHT22;2225;53.568;13.266;2024-03-02T09:44:05;14.10;99.90
4425;DHT22;2225;53.568;13.266;2024-03-02T09:46:32;14.20;99.90
4425;DHT22;2225;53.568;13.266;2024-03-02T09:48:59;14.20;99.90
4425;DHT22;2225;53.568;13.266;2024-03-02T09:51:26;14.20;99.90
4425;DHT22;2225;53.568;13.266;2024-03-02T09:53:55;14.20;99.90
4425;DHT22;2225;53.568;13.266;2024-03-02T09:56:28;14.20;99.90
4425;DHT22;2225;53.568;13.266;2024-03-02T09:58:55;14.20;99.90
4425;DHT22;2225;53.568;13.266;2024-03-02T10:01:22;14.20;99.90
4425;DHT22;2225;53.568;13.266;2024-03-02T10:03:50;14.30;99.90
4425;DHT22;2225;53.568;13.266;2024-03-02T10:06:21;14.30;99.90
4425;DHT22;2225;53.568;13.266;2024-03-02T10:08:49;14.30;99.90
4425;DHT22;2225;53.568;13.266;2024-03-02T10:11:33;14.30;99.90
4425;DHT22;2225;53.568;13.266;2024-03-02T10:14:11;14.40;99.90
4425;DHT22;2225;53.568;13.266;2024-03-02T10:16:40;14.40;99.90
4425;DHT22;2225;53.568;13.266;2024-03-02T10:19:21;14.40;99.90
4425;DHT22;2225;53.568;13.266;2024-03-02T10:21:53;14.50;99.90
4425;DHT22;2225;53.568;13.266;2024-03-02T10:24:22;14.50;99.90
4425;DHT22;2225;53.568;13.266;2024-03-02T10:26:49;14.60;99.90
4425;DHT22;2225;53.568;13.266;2024-03-02T10:29:17;14.60;99.90
4425;DHT22;2225;53.568;13.266;2024-03-02T10:31:45;14.60;99.90
4425;DHT22;2225;53.568;13.266;2024-03-02T10:34:13;14.70;99.90
4425;DHT22;2225;53.568;13.266;2024-03-02T10:36:42;14.80;99.90
4425;DHT22;2225;53.568;13.266;2024-03-02T10:39:09;14.80;99.90
4425;DHT22;2225;53.568;13.266;2024-03-02T10:41:38;14.90;99.90
4425;DHT22;2225;53.568;13.266;2024-03-02T10:44:06;15.00;99.90
4425;DHT22;2225;53.568;13.266;2024-03-02T10:46:38;15.00;99.90
4425;DHT22;2225;53.568;13.266;2024-03-02T10:49:05;15.10;99.90
4425;DHT22;2225;53.568;13.266;2024-03-02T10:51:35;15.20;99.90
4425;DHT22;2225;53.568;13.266;2024-03-02T10:54:05;15.20;99.90
4425;DHT22;2225;53.568;13.266;2024-03-02T10:56:40;15.30;99.90
4425;DHT22;2225;53.568;13.266;2024-03-02T11:01:58;15.40;99.70
4425;DHT22;2225;53.568;13.266;2024-03-02T11:04:31;15.40;99.50
4425;DHT22;2225;53.568;13.266;2024-03-02T11:07:08;15.50;99.40
4425;DHT22;2225;53.568;13.266;2024-03-02T11:09:54;15.50;99.10
4425;DHT22;2225;53.568;13.266;2024-03-02T11:12:29;15.60;98.90
4425;DHT22;2225;53.568;13.266;2024-03-02T11:14:58;15.60;98.90
4425;DHT22;2225;53.568;13.266;2024-03-02T11:17:27;15.70;99.00
4425;DHT22;2225;53.568;13.266;2024-03-02T11:19:55;15.70;99.10
4425;DHT22;2225;53.568;13.266;2024-03-02T11:22:22;15.70;98.90
4425;DHT22;2225;53.568;13.266;2024-03-02T11:24:50;15.80;98.70
4425;DHT22;2225;53.568;13.266;2024-03-02T11:33:12;16.00;98.30
4425;DHT22;2225;53.568;13.266;2024-03-02T11:35:43;16.10;98.60
4425;DHT22;2225;53.568;13.266;2024-03-02T11:38:13;16.20;98.20
4425;DHT22;2225;53.568;13.266;2024-03-02T11:40:41;16.20;98.40
4425;DHT22;2225;53.568;13.266;2024-03-02T11:43:08;16.30;97.90
4425;DHT22;2225;53.568;13.266;2024-03-02T11:45:36;16.30;97.70
4425;DHT22;2225;53.568;13.266;2024-03-02T11:48:08;16.40;97.30
4425;DHT22;2225;53.568;13.266;2024-03-02T11:50:47;16.40;97.50
4425;DHT22;2225;53.568;13.266;2024-03-02T11:53:17;16.40;97.50
4425;DHT22;2225;53.568;13.266;2024-03-02T11:55:46;16.50;97.60
4425;DHT22;2225;53.568;13.266;2024-03-02T11:58:14;16.50;97.50
4425;DHT22;2225;53.568;13.266;2024-03-02T12:00:47;16.60;97.50
4425;DHT22;2225;53.568;13.266;2024-03-02T12:03:14;16.70;97.20
4425;DHT22;2225;53.568;13.266;2024-03-02T12:05:42;16.70;97.20
4425;DHT22;2225;53.568;13.266;2024-03-02T12:08:10;16.80;97.00
4425;DHT22;2225;53.568;13.266;2024-03-02T12:10:39;16.80;96.90
4425;DHT22;2225;53.568;13.266;2024-03-02T12:13:07;16.90;97.10
4425;DHT22;2225;53.568;13.266;2024-03-02T12:15:35;17.00;96.90
4425;DHT22;2225;53.568;13.266;2024-03-02T12:18:04;17.10;96.50
4425;DHT22;2225;53.568;13.266;2024-03-02T12:20:33;17.10;96.60
4425;DHT22;2225;53.568;13.266;2024-03-02T12:23:01;17.10;96.40
4425;DHT22;2225;53.568;13.266;2024-03-02T12:25:30;17.20;96.00
4425;DHT22;2225;53.568;13.266;2024-03-02T12:27:59;17.10;95.10
4425;DHT22;2225;53.568;13.266;2024-03-02T12:30:30;17.10;95.20
4425;DHT22;2225;53.568;13.266;2024-03-02T12:32:58;17.10;95.00
4425;DHT22;2225;53.568;13.266;2024-03-02T12:35:25;17.10;95.00
4425;DHT22;2225;53.568;13.266;2024-03-02T12:37:53;17.10;95.20
4425;DHT22;2225;53.568;13.266;2024-03-02T12:40:21;17.10;95.30
4425;DHT22;2225;53.568;13.266;2024-03-02T12:42:50;17.20;95.20
4425;DHT22;2225;53.568;13.266;2024-03-02T12:45:18;17.20;95.40
4425;DHT22;2225;53.568;13.266;2024-03-02T12:47:52;17.20;95.10
4425;DHT22;2225;53.568;13.266;2024-03-02T12:50:20;17.30;95.20
4425;DHT22;2225;53.568;13.266;2024-03-02T12:52:52;17.30;95.30
4425;DHT22;2225;53.568;13.266;2024-03-02T12:55:21;17.30;95.30
4425;DHT22;2225;53.568;13.266;2024-03-02T12:57:52;17.40;95.10
4425;DHT22;2225;53.568;13.266;2024-03-02T13:00:21;17.40;95.10
4425;DHT22;2225;53.568;13.266;2024-03-02T13:02:50;17.40;95.10
4425;DHT22;2225;53.568;13.266;2024-03-02T13:05:18;17.40;95.00
4425;DHT22;2225;53.568;13.266;2024-03-02T13:07:50;17.40;94.30
4425;DHT22;2225;53.568;13.266;2024-03-02T13:10:17;17.30;94.30
4425;DHT22;2225;53.568;13.266;2024-03-02T13:12:45;17.30;94.70
4425;DHT22;2225;53.568;13.266;2024-03-02T13:15:13;17.30;94.80
4425;DHT22;2225;53.568;13.266;2024-03-02T13:17:45;17.30;94.40
4425;DHT22;2225;53.568;13.266;2024-03-02T13:20:15;17.40;94.70
4425;DHT22;2225;53.568;13.266;2024-03-02T13:22:43;17.40;94.80
4425;DHT22;2225;53.568;13.266;2024-03-02T13:25:10;17.50;94.70
4425;DHT22;2225;53.568;13.266;2024-03-02T13:27:38;17.50;94.60
4425;DHT22;2225;53.568;13.266;2024-03-02T13:30:06;17.60;94.70
4425;DHT22;2225;53.568;13.266;2024-03-02T13:32:34;17.60;94.60
4425;DHT22;2225;53.568;13.266;2024-03-02T13:35:01;17.70;94.30
4425;DHT22;2225;53.568;13.266;2024-03-02T13:37:29;17.70;94.30
4425;DHT22;2225;53.568;13.266;2024-03-02T13:39:56;17.80;94.30
4425;DHT22;2225;53.568;13.266;2024-03-02T13:42:23;17.90;94.30
4425;DHT22;2225;53.568;13.266;2024-03-02T13:44:50;17.90;94.10
4425;DHT22;2225;53.568;13.266;2024-03-02T13:47:18;17.90;94.10
4425;DHT22;2225;53.568;13.266;2024-03-02T13:49:45;18.00;93.90
4425;DHT22;2225;53.568;13.266;2024-03-02T13:52:15;18.00;94.00
4425;DHT22;2225;53.568;13.266;2024-03-02T13:54:46;18.10;93.80
4425;DHT22;2225;53.568;13.266;2024-03-02T13:57:13;18.10;93.90
4425;DHT22;2225;53.568;13.266;2024-03-02T13:59:41;18.20;93.70
4425;DHT22;2225;53.568;13.266;2024-03-02T14:02:09;18.20;93.60
4425;DHT22;2225;53.568;13.266;2024-03-02T14:04:38;18.20;93.60
4425;DHT22;2225;53.568;13.266;2024-03-02T14:07:06;18.30;92.90
4425;DHT22;2225;53.568;13.266;2024-03-02T14:09:34;18.30;93.10
4425;DHT22;2225;53.568;13.266;2024-03-02T14:12:02;18.20;93.20
4425;DHT22;2225;53.568;13.266;2024-03-02T14:14:30;18.30;93.30
4425;DHT22;2225;53.568;13.266;2024-03-02T14:16:58;18.30;93.30
4425;DHT22;2225;53.568;13.266;2024-03-02T14:19:30;18.30;93.40
4425;DHT22;2225;53.568;13.266;2024-03-02T14:21:57;18.30;93.10
4425;DHT22;2225;53.568;13.266;2024-03-02T14:24:24;18.30;93.00
4425;DHT22;2225;53.568;13.266;2024-03-02T14:26:53;18.30;92.70
4425;DHT22;2225;53.568;13.266;2024-03-02T14:29:28;18.30;92.80
4425;DHT22;2225;53.568;13.266;2024-03-02T14:31:56;18.30;93.00
4425;DHT22;2225;53.568;13.266;2024-03-02T14:34:23;18.30;92.80
4425;DHT22;2225;53.568;13.266;2024-03-02T14:36:50;18.20;92.60
4425;DHT22;2225;53.568;13.266;2024-03-02T14:39:17;18.20;92.70
4425;DHT22;2225;53.568;13.266;2024-03-02T14:41:46;18.20;92.80
4425;DHT22;2225;53.568;13.266;2024-03-02T14:44:13;18.10;92.70
4425;DHT22;2225;53.568;13.266;2024-03-02T14:46:40;18.10;92.80
4425;DHT22;2225;53.568;13.266;2024-03-02T14:49:09;18.00;92.60
4425;DHT22;2225;53.568;13.266;2024-03-02T14:51:37;17.90;92.70
4425;DHT22;2225;53.568;13.266;2024-03-02T14:54:04;17.80;92.70
4425;DHT22;2225;53.568;13.266;2024-03-02T14:56:31;17.80;92.80
4425;DHT22;2225;53.568;13.266;2024-03-02T14:58:58;17.70;92.80
4425;DHT22;2225;53.568;13.266;2024-03-02T15:01:25;17.60;92.70
4425;DHT22;2225;53.568;13.266;2024-03-02T15:03:52;17.50;92.70
4425;DHT22;2225;53.568;13.266;2024-03-02T15:06:19;17.50;92.90
4425;DHT22;2225;53.568;13.266;2024-03-02T15:08:46;17.40;92.90
4425;DHT22;2225;53.568;13.266;2024-03-02T15:11:14;17.30;93.00
4425;DHT22;2225;53.568;13.266;2024-03-02T15:13:41;17.30;93.20
4425;DHT22;2225;53.568;13.266;2024-03-02T15:16:09;17.30;93.20
4425;DHT22;2225;53.568;13.266;2024-03-02T15:18:36;17.20;93.20
4425;DHT22;2225;53.568;13.266;2024-03-02T15:21:03;17.20;93.30
4425;DHT22;2225;53.568;13.266;2024-03-02T15:23:30;17.10;93.40
4425;DHT22;2225;53.568;13.266;2024-03-02T15:25:57;17.10;93.50
4425;DHT22;2225;53.568;13.266;2024-03-02T15:28:24;17.10;93.60
4425;DHT22;2225;53.568;13.266;2024-03-02T15:30:51;17.00;93.50
4425;DHT22;2225;53.568;13.266;2024-03-02T15:33:22;16.90;93.60
4425;DHT22;2225;53.568;13.266;2024-03-02T15:35:52;16.90;93.70
4425;DHT22;2225;53.568;13.266;2024-03-02T15:38:22;16.80;93.60
4425;DHT22;2225;53.568;13.266;2024-03-02T15:40:59;16.70;93.70
4425;DHT22;2225;53.568;13.266;2024-03-02T15:43:26;16.70;93.80
4425;DHT22;2225;53.568;13.266;2024-03-02T15:45:53;16.60;93.80
4425;DHT22;2225;53.568;13.266;2024-03-02T15:48:20;16.60;93.90
4425;DHT22;2225;53.568;13.266;2024-03-02T15:50:47;16.50;93.90
4425;DHT22;2225;53.568;13.266;2024-03-02T15:53:16;16.50;94.00
4425;DHT22;2225;53.568;13.266;2024-03-02T15:55:43;16.50;94.10
4425;DHT22;2225;53.568;13.266;2024-03-02T15:58:10;16.40;94.10
4425;DHT22;2225;53.568;13.266;2024-03-02T16:00:37;16.40;94.20
4425;DHT22;2225;53.568;13.266;2024-03-02T16:03:04;16.40;94.20
4425;DHT22;2225;53.568;13.266;2024-03-02T16:05:31;16.30;94.30
4425;DHT22;2225;53.568;13.266;2024-03-02T16:07:58;16.30;94.30